Saint Pete Beach, Florida
Current Conditions -  °F | °C
As of 8:53 AM on Monday 26 Jan 2015 (Local Time) from KSPG Reporting Station
Few Clouds Few Clouds  
Wind Chill: 63°   Ceiling: Unl
Heat Index: 63°   Visibility: 10mi
Dew Point: 51°   Wind: 10mph
Humidity: 65%   Direction: 330°NNW
Pressure: 29.92"   Gusts: NA
Location:  27.7562°N, 82.7184°W
Report Text: KSPG 261353Z 33009KT 10SM FEW046 17/11 A2992 RMK AO2 SLP129 T01720106
Loading
Personal Weather Stations






























Interactive Weather Map New forecast layout! Learn more

10-Day Weather Forecast

Advertisements
Track Severe Weather on mobile